ENVR/VRY METAR and TAF weather

Enter ICAO airport designator
Station Type Date Time Source
ENVR METAR 2020/04/06 13:50 UTC NOAA

ENVR 061350Z 03013KT 9999 SCT018 03/01 Q1012


Station Type Date Time Source
ENVR Decoded METAR 2020/04/06 13:50 UTC NOAA

Station name not available
Apr 06, 2020 - 09:50 AM EDT / 2020.04.06 1350 UTC
Wind: from the NNE (030 degrees) at 15 MPH (13 KT):0
Visibility: greater than 7 mile(s):0
Sky conditions: partly cloudy
Temperature: 37 F (3 C)
Dew Point: 33 F (1 C)
Relative Humidity: 86%
Pressure (altimeter): 29.88 in. Hg (1012 hPa)
ob: ENVR 061350Z 03013KT 9999 SCT018 03/01 Q1012
cycle: 14

Station Type Date Time Source
ENVR TAF UTC NOAA

Error!

Example: see airport list